Time;durP1;ratioP1;P1;durP2;ratioP2;P2;SDS_P1;SDS_P2;PMS_P1;PMS_P2;Temp;Humidity;BMP_temperature;BMP_pressure;BME280_temperature;BME280_humidity;BME280_pressure;Samples;Min_cycle;Max_cycle;Signal;HPM_P1;HPM_P2
2021/12/09 00:01:41;;;;;;;27.60;13.33;;;;;;;5.90;100.00;99091.70;1665070;86;21527;-75
2021/12/09 00:04:12;;;;;;;24.83;12.97;;;;;;;5.91;100.00;99094.70;1664759;86;21058;-73
2021/12/09 00:06:41;;;;;;;29.37;13.40;;;;;;;5.94;100.00;99089.52;1661685;86;21041;-74
2021/12/09 00:09:13;;;;;;;25.27;12.83;;;;;;;5.95;100.00;99093.38;1636892;88;21106;-75
2021/12/09 00:11:45;;;;;;;29.77;13.37;;;;;;;5.96;100.00;99099.10;1637461;88;21027;-75
2021/12/09 00:14:20;;;;;;;25.93;13.13;;;;;;;5.96;100.00;99100.45;1661054;86;21002;-75
2021/12/09 00:16:48;;;;;;;29.73;13.90;;;;;;;5.97;100.00;99105.33;1606052;89;21065;-73
2021/12/09 00:19:15;;;;;;;29.47;14.10;;;;;;;5.97;100.00;99110.19;1575674;91;21043;-74
2021/12/09 00:21:41;;;;;;;31.53;14.17;;;;;;;5.97;100.00;99107.50;1605529;89;21057;-74
2021/12/09 00:24:09;;;;;;;32.20;15.20;;;;;;;5.97;100.00;99110.70;1608489;89;21053;-74
2021/12/09 00:26:38;;;;;;;31.03;13.40;;;;;;;5.98;100.00;99119.07;1639463;88;21107;-74
2021/12/09 00:29:06;;;;;;;29.03;14.57;;;;;;;5.98;100.00;99119.90;1638249;88;21089;-73
2021/12/09 00:31:33;;;;;;;28.53;13.63;;;;;;;5.98;100.00;99122.58;1638241;88;21499;-74
2021/12/09 00:34:01;;;;;;;26.47;13.87;;;;;;;5.99;100.00;99123.45;1638226;88;21600;-75
2021/12/09 00:36:36;;;;;;;28.00;14.03;;;;;;;6.01;100.00;99118.23;1637799;88;21512;-75
2021/12/09 00:38:59;;;;;;;25.90;13.93;;;;;;;6.00;100.00;99122.42;1634828;88;21105;-74
2021/12/09 00:41:26;;;;;;;26.53;13.73;;;;;;;6.01;100.00;99122.77;1637856;88;21527;-74
2021/12/09 00:43:53;;;;;;;26.40;13.53;;;;;;;6.01;100.00;99124.12;1637834;88;21085;-75
2021/12/09 00:46:20;;;;;;;26.20;13.37;;;;;;;6.01;100.00;99116.06;1638122;87;21041;-74
2021/12/09 00:48:47;;;;;;;24.13;12.97;;;;;;;6.02;100.00;99121.75;1638059;88;21535;-75
2021/12/09 00:51:15;;;;;;;27.67;14.33;;;;;;;6.03;100.00;99121.59;1637623;88;21515;-74
2021/12/09 00:53:41;;;;;;;26.50;14.40;;;;;;;6.05;100.00;99119.58;1638040;88;21069;-73
2021/12/09 00:56:10;;;;;;;25.33;14.00;;;;;;;6.05;100.00;99122.27;1637833;88;21109;-74
2021/12/09 00:58:38;;;;;;;22.90;13.37;;;;;;;6.06;100.00;99114.56;1637967;88;21084;-74
2021/12/09 01:01:06;;;;;;;23.97;13.13;;;;;;;6.07;100.00;99128.33;1638058;88;21045;-74
2021/12/09 01:03:35;;;;;;;27.73;14.13;;;;;;;6.08;100.00;99123.80;1637997;88;21033;-74
2021/12/09 01:06:02;;;;;;;25.83;13.93;;;;;;;6.09;100.00;99122.77;1638058;88;21532;-74
2021/12/09 01:08:29;;;;;;;30.13;14.53;;;;;;;6.11;100.00;99123.95;1612626;88;21037;-74
2021/12/09 01:10:56;;;;;;;25.33;13.37;;;;;;;6.11;100.00;99131.53;1602729;89;21090;-74
2021/12/09 01:13:22;;;;;;;22.57;12.43;;;;;;;6.13;100.00;99124.14;1607825;86;21042;-75
2021/12/09 01:15:49;;;;;;;22.50;12.43;;;;;;;6.14;100.00;99133.86;1662152;86;21110;-74
2021/12/09 01:18:16;;;;;;;24.30;13.00;;;;;;;6.17;100.00;99130.85;1661886;86;21061;-75
2021/12/09 01:20:43;;;;;;;22.73;12.47;;;;;;;6.19;100.00;99130.69;1661778;85;21568;-74
2021/12/09 01:23:10;;;;;;;24.77;12.63;;;;;;;6.19;100.00;99130.69;1664568;84;21057;-75
2021/12/09 01:25:38;;;;;;;25.67;13.20;;;;;;;6.22;100.00;99133.05;1664652;86;21073;-75
2021/12/09 01:28:12;;;;;;;23.93;12.03;;;;;;;6.25;100.00;99136.72;1664325;86;21615;-74
2021/12/09 01:30:38;;;;;;;23.20;12.30;;;;;;;6.25;100.00;99129.53;1663984;86;21050;-75
2021/12/09 01:33:06;;;;;;;25.50;13.33;;;;;;;6.28;100.00;99128.35;1664715;86;21041;-75
2021/12/09 01:35:34;;;;;;;26.67;12.87;;;;;;;6.30;100.00;99127.67;1664624;86;21033;-75
2021/12/09 01:38:09;;;;;;;26.13;13.33;;;;;;;6.32;100.00;99132.41;1664496;86;21014;-73
2021/12/09 01:40:31;;;;;;;25.33;12.87;;;;;;;6.36;100.00;99135.08;1665124;86;21583;-74
2021/12/09 01:43:00;;;;;;;26.50;13.77;;;;;;;6.39;100.00;99137.92;1645602;86;21053;-75
2021/12/09 01:45:27;;;;;;;26.67;14.23;;;;;;;6.40;100.00;99139.11;1664728;86;21022;-75
2021/12/09 01:47:54;;;;;;;24.80;13.47;;;;;;;6.42;100.00;99140.28;1664708;86;21551;-74
2021/12/09 01:50:21;;;;;;;24.97;13.00;;;;;;;6.45;100.00;99145.33;1664508;86;21097;-75
2021/12/09 01:52:48;;;;;;;26.13;13.73;;;;;;;6.46;100.00;99141.63;1664586;86;21038;-75
2021/12/09 01:55:15;;;;;;;29.50;15.87;;;;;;;6.48;100.00;99140.12;1664557;86;21050;-75
2021/12/09 01:57:42;;;;;;;29.60;16.57;;;;;;;6.50;100.00;99150.19;1664684;86;21018;-73
2021/12/09 02:00:13;;;;;;;24.27;14.47;;;;;;;6.51;100.00;99144.65;1664514;86;21025;-74
2021/12/09 02:02:41;;;;;;;27.27;14.57;;;;;;;6.53;100.00;99149.86;1664297;86;21017;-74
2021/12/09 02:05:09;;;;;;;28.97;14.53;;;;;;;6.53;100.00;99152.03;1664538;86;21480;-74
2021/12/09 02:07:36;;;;;;;29.10;14.60;;;;;;;6.55;100.00;99146.50;1664526;86;21544;-75
2021/12/09 02:10:08;;;;;;;24.87;14.17;;;;;;;6.56;100.00;99144.99;1664835;86;21096;-74
2021/12/09 02:12:36;;;;;;;23.60;13.47;;;;;;;6.59;100.00;99147.86;1663929;84;21048;-74
2021/12/09 02:15:05;;;;;;;24.43;13.97;;;;;;;6.62;100.00;99152.88;1663026;86;21032;-75
2021/12/09 02:17:32;;;;;;;23.77;13.43;;;;;;;6.61;100.00;99149.36;1662654;85;21482;-74
2021/12/09 02:20:01;;;;;;;24.93;13.60;;;;;;;6.64;100.00;99157.61;1662791;85;21072;-74
2021/12/09 02:22:29;;;;;;;25.83;13.57;;;;;;;6.65;100.00;99160.61;1664043;85;21080;-75
2021/12/09 02:24:56;;;;;;;23.20;13.37;;;;;;;6.67;100.00;99160.45;1665333;86;20997;-74
2021/12/09 02:27:24;;;;;;;25.97;13.93;;;;;;;6.68;100.00;99161.63;1665723;86;21040;-75
2021/12/09 02:29:52;;;;;;;23.67;13.77;;;;;;;6.70;100.00;99162.30;1665256;86;21138;-74
2021/12/09 02:32:19;;;;;;;25.27;14.07;;;;;;;6.72;100.00;99162.96;1665257;86;21001;-75
2021/12/09 02:34:46;;;;;;;27.03;14.77;;;;;;;6.75;100.00;99176.58;1665468;86;21510;-75
2021/12/09 02:37:14;;;;;;;26.27;14.03;;;;;;;6.77;100.00;99174.56;1664958;85;21084;-75
2021/12/09 02:39:42;;;;;;;26.20;14.60;;;;;;;6.79;100.00;99174.72;1665382;85;21013;-74
2021/12/09 02:42:10;;;;;;;28.23;15.30;;;;;;;6.81;100.00;99175.38;1665336;86;21044;-74
2021/12/09 02:44:37;;;;;;;28.30;15.67;;;;;;;6.82;100.00;99179.77;1664842;86;21107;-75
2021/12/09 02:47:04;;;;;;;28.00;15.90;;;;;;;6.86;100.00;99180.27;1665191;86;21053;-74
2021/12/09 02:49:32;;;;;;;30.60;17.27;;;;;;;6.88;100.00;99182.79;1665061;86;21085;-75
2021/12/09 02:52:00;;;;;;;28.87;16.17;;;;;;;6.88;100.00;99186.31;1665195;86;21213;-76
2021/12/09 02:54:27;;;;;;;28.57;16.20;;;;;;;6.91;100.00;99187.33;1665212;86;21021;-75
2021/12/09 02:57:01;;;;;;;28.53;14.60;;;;;;;6.94;100.00;99188.82;1665279;86;21017;-75
2021/12/09 02:59:29;;;;;;;28.60;15.53;;;;;;;6.97;100.00;99184.45;1665097;86;21037;-75
2021/12/09 03:02:00;;;;;;;28.40;15.23;;;;;;;6.99;100.00;99194.05;1665492;86;21024;-75
2021/12/09 03:04:50;;;;;;;29.30;15.10;;;;;;;7.02;100.00;99194.20;1665395;86;21457;-75
2021/12/09 03:07:27;;;;;;;26.53;14.10;;;;;;;7.03;100.00;99198.07;1673159;85;21538;-75
2021/12/09 03:09:59;;;;;;;25.53;13.40;;;;;;;7.07;100.00;99205.30;1588788;87;21074;-75
2021/12/09 03:12:32;;;;;;;26.70;14.83;;;;;;;7.09;100.00;99208.65;1591131;88;21582;-74
2021/12/09 03:15:00;;;;;;;27.30;14.70;;;;;;;7.11;100.00;99211.17;1608200;89;21555;-75
2021/12/09 03:17:27;;;;;;;26.87;16.07;;;;;;;7.12;100.00;99216.86;1607264;87;21096;-75
2021/12/09 03:19:54;;;;;;;26.50;15.17;;;;;;;7.13;100.00;99214.52;1607651;89;21113;-76
2021/12/09 03:22:21;;;;;;;26.80;15.30;;;;;;;7.14;100.00;99213.53;1607830;88;21106;-75
2021/12/09 03:24:49;;;;;;;24.20;13.87;;;;;;;7.15;100.00;99214.70;1607390;89;21130;-73
2021/12/09 03:27:17;;;;;;;28.20;15.03;;;;;;;7.16;100.00;99211.50;1607149;89;21585;-76
2021/12/09 03:29:44;;;;;;;26.43;14.20;;;;;;;7.16;100.00;99215.02;1607637;89;21113;-73
2021/12/09 03:32:14;;;;;;;25.13;13.50;;;;;;;7.18;100.00;99218.89;1607364;89;21080;-75
2021/12/09 03:34:41;;;;;;;23.47;13.60;;;;;;;7.21;100.00;99219.39;1607287;89;21574;-76
2021/12/09 03:37:13;;;;;;;24.93;13.87;;;;;;;7.23;100.00;99220.05;1607154;89;21729;-75
2021/12/09 03:39:41;;;;;;;23.57;13.23;;;;;;;7.26;100.00;99222.06;1607298;89;21069;-75
2021/12/09 03:42:10;;;;;;;24.27;13.10;;;;;;;7.28;100.00;99224.94;1607389;89;21101;-76
2021/12/09 03:44:37;;;;;;;23.63;13.37;;;;;;;7.29;100.00;99230.64;1607344;89;21101;-75
2021/12/09 03:47:07;;;;;;;22.27;12.73;;;;;;;7.30;100.00;99232.33;1607298;89;21125;-74
2021/12/09 03:49:34;;;;;;;21.20;12.47;;;;;;;7.28;100.00;99229.45;1607124;89;21105;-75
2021/12/09 03:52:02;;;;;;;31.63;19.30;;;;;;;7.30;100.00;99236.88;1607571;89;21041;-75
2021/12/09 03:54:28;;;;;;;34.40;19.60;;;;;;;7.28;100.00;99233.01;1607627;88;21167;-75
2021/12/09 03:56:55;;;;;;;28.33;18.67;;;;;;;7.30;100.00;99236.36;1607579;89;21093;-75
2021/12/09 03:59:22;;;;;;;30.87;17.40;;;;;;;7.30;100.00;99237.70;1607464;89;21037;-76
2021/12/09 04:01:49;;;;;;;27.87;16.33;;;;;;;7.30;100.00;99240.91;1607469;89;21554;-75
2021/12/09 04:04:16;;;;;;;27.17;16.70;;;;;;;7.29;100.00;99242.73;1607358;89;21061;-75
2021/12/09 04:06:45;;;;;;;27.30;16.63;;;;;;;7.29;100.00;99241.91;1616881;88;21143;-77
2021/12/09 04:09:14;;;;;;;25.90;15.43;;;;;;;7.30;100.00;99247.63;1613882;89;21624;-75
2021/12/09 04:11:41;;;;;;;26.17;15.97;;;;;;;7.28;100.00;99247.80;1638862;86;21519;-75
2021/12/09 04:14:08;;;;;;;22.47;13.53;;;;;;;7.28;100.00;99250.97;1643270;86;21516;-74
2021/12/09 04:16:35;;;;;;;21.67;12.90;;;;;;;7.28;100.00;99255.00;1641757;87;21016;-76
2021/12/09 04:19:04;;;;;;;23.43;13.97;;;;;;;7.28;100.00;99255.86;1641321;87;21054;-76
2021/12/09 04:21:32;;;;;;;21.60;12.20;;;;;;;7.29;100.00;99251.31;1641291;87;21073;-74
2021/12/09 04:23:59;;;;;;;20.93;12.23;;;;;;;7.30;100.00;99257.05;1641450;87;21057;-75
2021/12/09 04:26:26;;;;;;;22.83;12.93;;;;;;;7.30;100.00;99250.32;1641599;87;21049;-75
2021/12/09 04:28:52;;;;;;;23.17;13.57;;;;;;;7.29;100.00;99258.87;1641573;87;21555;-75
2021/12/09 04:31:20;;;;;;;20.67;12.10;;;;;;;7.31;100.00;99258.70;1618517;87;21022;-75
2021/12/09 04:33:47;;;;;;;18.47;10.30;;;;;;;7.33;100.00;99252.65;1641251;87;21061;-76
2021/12/09 04:36:14;;;;;;;23.00;13.37;;;;;;;7.35;100.00;99262.24;1641777;87;21121;-76
2021/12/09 04:38:41;;;;;;;18.57;11.33;;;;;;;7.35;100.00;99264.10;1641521;87;21539;-76
2021/12/09 04:41:09;;;;;;;20.60;12.20;;;;;;;7.36;100.00;99267.11;1641362;87;21062;-76
2021/12/09 04:43:40;;;;;;;20.67;11.87;;;;;;;7.35;100.00;99263.59;1641657;85;21098;-75
2021/12/09 04:46:04;;;;;;;25.43;14.77;;;;;;;7.36;100.00;99272.48;1641585;87;21544;-75
2021/12/09 04:48:31;;;;;;;24.93;14.70;;;;;;;7.37;100.00;99280.39;1641502;87;21535;-76
2021/12/09 04:50:58;;;;;;;23.83;14.50;;;;;;;7.37;100.00;99279.56;1641756;87;21042;-76
2021/12/09 04:53:25;;;;;;;26.73;16.50;;;;;;;7.38;100.00;99282.09;1641931;87;21069;-77
2021/12/09 04:55:52;;;;;;;23.50;14.03;;;;;;;7.39;100.00;99289.64;1642181;87;21070;-76
2021/12/09 04:58:18;;;;;;;26.13;15.83;;;;;;;7.40;100.00;99289.95;1642203;87;21611;-76
2021/12/09 05:00:47;;;;;;;23.63;14.07;;;;;;;7.43;100.00;99293.66;1642408;87;21009;-77
2021/12/09 05:03:14;;;;;;;22.43;13.40;;;;;;;7.44;100.00;99298.53;1642423;87;21515;-78
2021/12/09 05:05:46;;;;;;;20.53;12.83;;;;;;;7.44;100.00;99305.25;1642209;87;21049;-78
2021/12/09 05:08:16;;;;;;;20.17;11.90;;;;;;;7.43;100.00;99310.31;1615962;89;21077;-76
2021/12/09 05:10:57;;;;;;;22.87;12.77;;;;;;;7.40;100.00;99308.78;1616022;89;21055;-77
2021/12/09 05:13:21;;;;;;;22.53;11.83;;;;;;;7.37;100.00;99309.98;1627347;85;21017;-78
2021/12/09 05:15:48;;;;;;;21.70;11.73;;;;;;;7.34;100.00;99311.65;1641206;87;21033;-77
2021/12/09 05:18:15;;;;;;;18.10;9.60;;;;;;;7.28;100.00;99313.69;1611869;89;21067;-77
2021/12/09 05:20:43;;;;;;;20.07;11.13;;;;;;;7.24;100.00;99315.00;1612086;89;21198;-78
2021/12/09 05:23:10;;;;;;;14.67;8.53;;;;;;;7.21;100.00;99316.19;1608593;87;21611;-78
2021/12/09 05:25:37;;;;;;;13.70;7.60;;;;;;;7.20;100.00;99312.32;1601522;88;21564;-79
2021/12/09 05:28:05;;;;;;;15.67;7.90;;;;;;;7.17;100.00;99320.23;1601160;90;21074;-78
2021/12/09 05:30:40;;;;;;;17.37;8.53;;;;;;;7.17;100.00;99322.05;1601485;88;21106;-77
2021/12/09 05:33:00;;;;;;;17.40;8.47;;;;;;;7.17;100.00;99328.30;1604755;87;21132;-77
2021/12/09 05:35:27;;;;;;;17.70;9.23;;;;;;;7.17;100.00;99328.30;1601674;90;21083;-78
2021/12/09 05:37:54;;;;;;;14.50;7.23;;;;;;;7.17;100.00;99337.70;1601709;88;21600;-78
2021/12/09 05:40:21;;;;;;;13.63;7.50;;;;;;;7.16;100.00;99340.56;1601683;90;21103;-78
2021/12/09 05:42:48;;;;;;;15.90;8.10;;;;;;;7.16;100.00;99341.39;1601831;88;21699;-76
2021/12/09 05:45:14;;;;;;;17.50;9.30;;;;;;;7.17;100.00;99342.22;1602227;88;21115;-81
2021/12/09 05:47:41;;;;;;;20.00;10.77;;;;;;;7.15;100.00;99349.14;1604394;88;21067;-78
2021/12/09 05:50:09;;;;;;;24.37;14.73;;;;;;;7.16;100.00;99354.00;1601309;90;21107;-77
2021/12/09 05:52:36;;;;;;;29.57;18.43;;;;;;;7.18;100.00;99357.36;1601588;90;21074;-77
2021/12/09 05:55:03;;;;;;;30.57;19.40;;;;;;;7.17;100.00;99359.70;1602175;88;21565;-77
2021/12/09 05:57:31;;;;;;;26.67;16.57;;;;;;;7.17;100.00;99369.11;1601230;90;21139;-78
2021/12/09 06:00:00;;;;;;;20.07;12.10;;;;;;;7.16;100.00;99364.76;1601375;90;21149;-77
2021/12/09 06:02:27;;;;;;;18.57;11.07;;;;;;;7.15;100.00;99371.99;1601517;90;21047;-77
2021/12/09 06:04:55;;;;;;;15.67;8.93;;;;;;;7.14;100.00;99374.33;1617529;87;21593;-78
2021/12/09 06:07:22;;;;;;;20.67;10.93;;;;;;;7.13;100.00;99375.83;1644279;86;21048;-78
2021/12/09 06:09:49;;;;;;;25.03;13.50;;;;;;;7.11;100.00;99384.58;1628097;88;21041;-77
2021/12/09 06:12:15;;;;;;;30.30;18.37;;;;;;;7.14;100.00;99390.97;1629862;87;21017;-76
2021/12/09 06:14:42;;;;;;;29.40;18.00;;;;;;;7.16;100.00;99386.27;1668557;86;21025;-79
2021/12/09 06:17:09;;;;;;;28.20;15.93;;;;;;;7.16;100.00;99392.98;1668833;86;21012;-81
2021/12/09 06:19:37;;;;;;;17.17;9.80;;;;;;;7.16;100.00;99390.30;1643609;86;21027;-78
2021/12/09 06:22:04;;;;;;;15.50;8.43;;;;;;;7.14;100.00;99397.69;1610874;89;21066;-77
2021/12/09 06:24:31;;;;;;;12.63;7.43;;;;;;;7.13;100.00;99401.38;1670217;84;21155;-77
2021/12/09 06:26:59;;;;;;;14.37;7.33;;;;;;;7.10;100.00;99402.56;1670822;86;21126;-78
2021/12/09 06:29:27;;;;;;;17.60;8.50;;;;;;;7.05;100.00;99406.23;1670460;84;21013;-79
2021/12/09 06:31:54;;;;;;;15.93;8.53;;;;;;;7.03;100.00;99406.40;1670692;86;21066;-79
2021/12/09 06:34:20;;;;;;;17.83;9.70;;;;;;;7.01;100.00;99414.27;1671257;86;21066;-78
2021/12/09 06:36:47;;;;;;;15.77;8.13;;;;;;;7.01;100.00;99424.55;1670449;85;21053;-77
2021/12/09 06:39:14;;;;;;;13.77;8.57;;;;;;;7.00;100.00;99424.70;1670783;85;21010;-76
2021/12/09 06:41:41;;;;;;;18.77;8.77;;;;;;;6.98;100.00;99423.52;1670829;85;21024;-77
2021/12/09 06:44:08;;;;;;;14.90;7.70;;;;;;;6.99;100.00;99423.01;1669492;85;21000;-80
2021/12/09 06:46:35;;;;;;;14.43;8.40;;;;;;;6.98;100.00;99424.86;1669570;86;21036;-80
2021/12/09 06:49:04;;;;;;;19.47;10.40;;;;;;;6.99;100.00;99427.04;1670250;85;21017;-81
2021/12/09 06:51:32;;;;;;;25.53;11.57;;;;;;;7.01;100.00;99424.55;1670148;85;21357;-77
2021/12/09 06:53:59;;;;;;;20.47;11.30;;;;;;;7.03;100.00;99427.91;1670291;85;21017;-78
2021/12/09 06:56:27;;;;;;;20.47;10.07;;;;;;;7.05;100.00;99429.09;1670130;86;21535;-78
2021/12/09 06:58:54;;;;;;;20.90;10.10;;;;;;;7.06;100.00;99437.98;1670151;85;21069;-79
2021/12/09 07:01:21;;;;;;;17.47;9.33;;;;;;;7.08;100.00;99449.41;1670017;85;21009;-78
2021/12/09 07:03:48;;;;;;;18.50;10.47;;;;;;;7.10;100.00;99450.09;1670283;85;20989;-80
2021/12/09 07:06:16;;;;;;;20.77;11.10;;;;;;;7.12;100.00;99450.28;1671484;85;21002;-84
2021/12/09 07:08:48;;;;;;;21.57;11.80;;;;;;;7.12;100.00;99455.66;1667426;86;21042;-80
2021/12/09 07:11:17;;;;;;;;;;;;;;;7.11;100.00;99459.85;1673511;85;21112;-76
2021/12/09 07:13:46;;;;;;;15.00;7.80;;;;;;;7.10;100.00;99463.05;1666584;86;20176;-77
2021/12/09 07:16:13;;;;;;;16.10;8.03;;;;;;;7.10;100.00;99471.11;1670043;86;20994;-76
2021/12/09 07:18:41;;;;;;;17.17;8.27;;;;;;;7.08;100.00;99470.41;1670428;85;21049;-77
2021/12/09 07:21:08;;;;;;;17.77;8.43;;;;;;;7.09;100.00;99471.27;1671504;85;21021;-77
2021/12/09 07:23:34;;;;;;;17.13;7.50;;;;;;;7.10;100.00;99475.14;1666315;85;21030;-80
2021/12/09 07:26:02;;;;;;;17.07;8.23;;;;;;;7.08;100.00;99477.64;1664609;86;21010;-79
2021/12/09 07:28:29;;;;;;;15.43;7.67;;;;;;;7.08;100.00;99483.02;1634469;88;21108;-75
2021/12/09 07:30:58;;;;;;;14.67;7.00;;;;;;;7.10;100.00;99483.69;1664655;86;21128;-78
2021/12/09 07:33:24;;;;;;;21.73;11.23;;;;;;;7.12;100.00;99490.61;1662419;86;21039;-77
2021/12/09 07:35:51;;;;;;;20.00;10.30;;;;;;;7.15;100.00;99492.98;1645807;86;21037;-79
2021/12/09 07:38:18;;;;;;;15.87;8.83;;;;;;;7.18;100.00;99491.80;1659974;85;21109;-80
2021/12/09 07:40:45;;;;;;;10.43;6.13;;;;;;;7.20;100.00;99496.51;1666113;85;20995;-81
2021/12/09 07:43:12;;;;;;;10.33;5.97;;;;;;;7.18;100.00;99495.32;1665339;86;21038;-80
2021/12/09 07:45:40;;;;;;;10.60;5.80;;;;;;;7.19;100.00;99506.94;1666180;85;21578;-81
2021/12/09 07:48:07;;;;;;;9.90;4.80;;;;;;;7.21;100.00;99507.62;1662212;86;20987;-82
2021/12/09 07:50:35;;;;;;;11.50;5.90;;;;;;;7.15;100.00;99509.12;1662789;86;21089;-81
2021/12/09 07:53:03;;;;;;;12.60;6.37;;;;;;;7.15;100.00;99510.45;1664865;86;21005;-81
2021/12/09 07:55:31;;;;;;;7.43;4.10;;;;;;;7.18;100.00;99514.14;1662037;86;21018;-81
2021/12/09 07:57:58;;;;;;;14.27;6.50;;;;;;;7.25;100.00;99510.82;1664333;86;21045;-77
2021/12/09 08:00:29;;;;;;;9.23;5.20;;;;;;;7.26;100.00;99517.39;1663273;85;21042;-74
2021/12/09 08:02:56;;;;;;;8.07;4.30;;;;;;;7.31;100.00;99518.22;1665399;85;20999;-76
2021/12/09 08:05:24;;;;;;;15.00;5.37;;;;;;;7.35;100.00;99523.64;1663551;86;21029;-78
2021/12/09 08:07:52;;;;;;;12.50;6.07;;;;;;;7.36;100.00;99522.11;1669957;85;21062;-77
2021/12/09 08:10:19;;;;;;;4.27;3.10;;;;;;;7.40;100.00;99526.17;1671769;85;21003;-76
2021/12/09 08:12:46;;;;;;;20.43;12.00;;;;;;;7.41;100.00;99529.19;1664222;85;21005;-76
2021/12/09 08:15:16;;;;;;;10.30;5.50;;;;;;;7.43;100.00;99526.34;1667854;85;20994;-76
2021/12/09 08:17:46;;;;;;;12.63;5.73;;;;;;;7.47;100.00;99533.58;1667333;85;21005;-77
2021/12/09 08:20:15;;;;;;;14.63;6.40;;;;;;;7.49;100.00;99536.45;1668670;85;21022;-77
2021/12/09 08:22:44;;;;;;;21.77;14.37;;;;;;;7.49;100.00;99538.28;1671193;85;22402;-78
2021/12/09 08:25:13;;;;;;;15.50;6.53;;;;;;;7.47;100.00;99537.13;1674187;84;21014;-74
2021/12/09 08:27:45;;;;;;;20.47;6.23;;;;;;;7.50;100.00;99530.56;1673504;85;21060;-77
2021/12/09 08:30:15;;;;;;;22.07;8.00;;;;;;;7.52;100.00;99532.07;1673273;85;21100;-78
2021/12/09 08:32:42;;;;;;;24.07;11.90;;;;;;;7.53;100.00;99528.91;1671073;85;21018;-75
2021/12/09 08:35:09;;;;;;;28.53;14.20;;;;;;;7.51;100.00;99521.50;1669334;85;20982;-79
2021/12/09 08:37:36;;;;;;;17.77;8.20;;;;;;;7.51;100.00;99516.95;1667710;84;21508;-74
2021/12/09 08:40:06;;;;;;;20.70;8.90;;;;;;;7.51;100.00;99503.50;1669077;85;21005;-74
2021/12/09 08:42:33;;;;;;;20.13;9.20;;;;;;;7.52;100.00;99502.48;1668473;84;21001;-73
2021/12/09 08:45:00;;;;;;;12.63;6.70;;;;;;;7.56;100.00;99488.19;1673644;85;20998;-74
2021/12/09 08:47:27;;;;;;;19.10;8.67;;;;;;;7.60;100.00;99487.71;1641467;87;21049;-74
2021/12/09 08:49:54;;;;;;;14.67;5.83;;;;;;;7.67;100.00;99474.44;1626066;86;21063;-75
2021/12/09 08:52:20;;;;;;;17.63;7.70;;;;;;;7.77;100.00;99472.44;1630745;86;21016;-75
2021/12/09 08:54:47;;;;;;;16.10;7.10;;;;;;;7.89;100.00;99464.03;1677762;85;21072;-74
2021/12/09 08:57:14;;;;;;;16.13;7.70;;;;;;;8.02;100.00;99454.09;1642719;87;21010;-75
2021/12/09 08:59:40;;;;;;;9.73;4.70;;;;;;;8.12;100.00;99450.21;1676405;85;21022;-76
2021/12/09 09:02:07;;;;;;;6.43;4.13;;;;;;;8.18;100.00;99446.02;1644329;86;21032;-74
2021/12/09 09:04:34;;;;;;;12.67;6.33;;;;;;;8.18;100.00;99432.04;1680002;85;21198;-74
2021/12/09 09:07:01;;;;;;;9.40;5.33;;;;;;;8.17;100.00;99431.70;1676219;85;21617;-74
2021/12/09 09:09:33;;;;;;;11.33;6.47;;;;;;;8.17;100.00;99431.70;1671507;85;21081;-71
2021/12/09 09:11:57;;;;;;;13.13;6.33;;;;;;;8.14;100.00;99429.36;1676814;84;20983;-71
2021/12/09 09:14:25;;;;;;;10.30;5.90;;;;;;;8.10;100.00;99423.13;1683508;85;21047;-70
2021/12/09 09:16:53;;;;;;;8.53;5.50;;;;;;;8.12;100.00;99430.53;1684710;84;21084;-73
2021/12/09 09:19:19;;;;;;;10.23;5.57;;;;;;;8.02;100.00;99432.07;1681324;84;21021;-74
2021/12/09 09:21:47;;;;;;;11.63;6.20;;;;;;;7.97;100.00;99427.18;1673988;85;21547;-73
2021/12/09 09:24:13;;;;;;;10.73;5.90;;;;;;;7.95;100.00;99430.55;1647589;86;21057;-73
2021/12/09 09:26:41;;;;;;;11.57;6.10;;;;;;;7.93;100.00;99431.23;1677890;85;21025;-72
2021/12/09 09:29:09;;;;;;;8.77;5.00;;;;;;;7.94;100.00;99422.13;1673052;84;21530;-73
2021/12/09 09:31:36;;;;;;;13.13;5.87;;;;;;;7.97;100.00;99424.48;1678998;85;21065;-73
2021/12/09 09:34:04;;;;;;;17.80;11.47;;;;;;;7.97;100.00;99427.70;1681995;85;21662;-73
2021/12/09 09:36:32;;;;;;;14.13;8.33;;;;;;;7.96;100.00;99427.34;1678960;85;21134;-75
2021/12/09 09:39:06;;;;;;;10.63;5.40;;;;;;;7.94;100.00;99427.51;1676533;85;21018;-72
2021/12/09 09:41:32;;;;;;;11.37;5.90;;;;;;;7.94;100.00;99436.93;1678855;84;21109;-76
2021/12/09 09:43:59;;;;;;;11.53;5.93;;;;;;;7.96;100.00;99444.33;1684594;85;21037;-71
2021/12/09 09:46:29;;;;;;;12.67;7.67;;;;;;;7.91;100.00;99439.95;1670753;83;21075;-74
2021/12/09 09:48:57;;;;;;;11.13;6.70;;;;;;;7.87;100.00;99441.31;1676245;83;21072;-73
2021/12/09 09:51:26;;;;;;;10.20;6.07;;;;;;;7.87;100.00;99439.96;1673858;84;21610;-74
2021/12/09 09:53:53;;;;;;;10.60;6.40;;;;;;;7.85;100.00;99448.72;1663876;85;21058;-74
2021/12/09 09:56:23;;;;;;;14.57;7.63;;;;;;;7.80;100.00;99446.52;1666447;85;21499;-71
2021/12/09 09:59:00;;;;;;;14.90;8.23;;;;;;;7.77;100.00;99449.56;1671336;84;20997;-71
2021/12/09 10:01:28;;;;;;;18.20;8.23;;;;;;;7.78;100.00;99447.70;1626679;86;21543;-70
2021/12/09 10:04:09;;;;;;;21.27;9.80;;;;;;;7.82;100.00;99447.70;1631859;85;21056;-72
2021/12/09 10:06:24;;;;;;;17.33;8.93;;;;;;;7.83;100.00;99447.22;1616067;86;21080;-72
2021/12/09 10:08:51;;;;;;;24.67;10.63;;;;;;;7.79;100.00;99442.16;1645236;86;21648;-71
2021/12/09 10:11:18;;;;;;;18.43;9.10;;;;;;;7.75;100.00;99454.25;1642278;85;21099;-72
2021/12/09 10:13:45;;;;;;;25.43;10.40;;;;;;;7.73;100.00;99463.52;1646287;85;21532;-70
2021/12/09 10:16:25;;;;;;;20.67;10.00;;;;;;;7.70;100.00;99459.80;1656173;86;21072;-72
2021/12/09 10:18:56;;;;;;;18.80;10.50;;;;;;;7.70;100.00;99464.70;1638363;86;21014;-71
2021/12/09 10:21:28;;;;;;;23.93;11.33;;;;;;;7.68;100.00;99459.13;1649088;86;20997;-71
2021/12/09 10:24:06;;;;;;;21.47;11.03;;;;;;;7.68;100.00;99457.27;1643039;85;21038;-71
2021/12/09 10:26:42;;;;;;;24.67;11.70;;;;;;;7.71;100.00;99462.33;1635233;86;21120;-70
2021/12/09 10:29:15;;;;;;;17.13;9.67;;;;;;;7.71;100.00;99459.64;1623539;86;21022;-71
2021/12/09 10:31:51;;;;;;;19.70;9.97;;;;;;;7.69;100.00;99467.55;1650011;86;21557;-70
2021/12/09 10:37:06;;;;;;;17.77;9.70;;;;;;;7.69;100.00;99468.90;1564242;91;21088;-74
2021/12/09 10:39:53;;;;;;;22.97;10.10;;;;;;;7.73;100.00;99472.42;1561787;91;21137;-71
2021/12/09 10:42:35;;;;;;;20.87;9.40;;;;;;;7.75;100.00;99471.73;1559185;91;21050;-72
2021/12/09 10:45:28;;;;;;;16.73;8.20;;;;;;;7.78;100.00;99476.80;1552521;91;21105;-71
2021/12/09 10:51:03;;;;;;;21.27;10.43;;;;;;;7.74;100.00;99481.36;1535059;92;21098;-70
2021/12/09 10:55:55;;;;;;;20.00;10.30;;;;;;;7.69;100.00;99475.11;1530699;92;21098;-70
2021/12/09 10:58:28;;;;;;;16.37;9.27;;;;;;;7.67;100.00;99478.48;1505615;94;21105;-70
2021/12/09 11:01:00;;;;;;;;;;;;;;;7.64;100.00;99481.49;1518698;93;21584;-72
2021/12/09 11:03:43;;;;;;;20.60;10.80;;;;;;;7.57;100.00;99479.12;1520841;93;20423;-71
2021/12/09 11:06:13;;;;;;;21.07;10.70;;;;;;;7.53;100.00;99482.66;1512060;93;21038;-71
2021/12/09 11:08:53;;;;;;;22.73;11.90;;;;;;;7.44;100.00;99485.00;1512783;93;21078;-70
2021/12/09 11:11:35;;;;;;;20.50;10.90;;;;;;;7.38;100.00;99492.36;1513433;93;21155;-71
2021/12/09 11:14:16;;;;;;;20.87;10.23;;;;;;;7.39;100.00;99499.44;1525816;90;21009;-71
2021/12/09 11:17:02;;;;;;;23.47;12.17;;;;;;;7.39;100.00;99502.95;1574254;90;21060;-71
2021/12/09 11:21:58;;;;;;;20.20;10.63;;;;;;;7.39;100.00;99504.81;1540189;90;21529;-75
2021/12/09 11:24:30;;;;;;;19.07;10.93;;;;;;;7.39;100.00;99514.23;1546745;91;21036;-75
2021/12/09 11:27:07;;;;;;;22.33;11.10;;;;;;;7.38;100.00;99520.60;1527429;93;22374;-73
2021/12/09 11:29:44;;;;;;;21.90;13.23;;;;;;;7.33;100.00;99513.52;1537786;93;21221;-71
2021/12/09 11:32:33;;;;;;;18.57;10.63;;;;;;;7.33;100.00;99514.39;1505166;93;21156;-71
2021/12/09 11:35:02;;;;;;;18.30;10.40;;;;;;;7.34;100.00;99524.12;1503876;95;21686;-73
2021/12/09 11:40:23;;;;;;;20.90;9.70;;;;;;;7.35;100.00;99524.47;1496972;94;21189;-72
2021/12/09 11:42:56;;;;;;;19.10;9.97;;;;;;;7.32;100.00;99524.79;1519642;94;21095;-72